Schneiders Prairie, Washington
Current Conditions -  °F | °C
As of 12:54 PM on Saturday 20 Dec 2014 (Local Time) from KOLM Reporting Station
Moderate Rain Moderate Rain  
Wind Chill: 43°   Ceiling: 1100
Heat Index: 49°   Visibility: 2mi
Dew Point: 47°   Wind: 16mph
Humidity: 93%   Direction: 200°SSW
Pressure: 29.54"   Gusts: 23mph
Location:  46.9755°N, 122.872°W
Report Text: KOLM 202054Z 20014G20KT 2SM RA BR OVC011 09/08 A2954 RMK AO2 SLP004 P0016 60037 T00940083 58023
Loading
Personal Weather Stations






























Interactive Weather Map New forecast layout! Learn more

10-Day Weather Forecast

Advertisements
Track Severe Weather on mobile